createdAt,value
2022-11-17T00:00:02.342Z,10.23
2022-11-17T00:01:02.328Z,10.23
2022-11-17T00:02:02.388Z,10.23
2022-11-17T00:03:02.370Z,10.21
2022-11-17T00:04:02.360Z,10.22
2022-11-17T00:05:02.358Z,10.24
2022-11-17T00:06:02.385Z,10.23
2022-11-17T00:07:02.414Z,10.23
2022-11-17T00:08:02.354Z,10.26
2022-11-17T00:09:02.352Z,10.25
2022-11-17T00:10:02.377Z,10.25
2022-11-17T00:11:02.363Z,10.24
2022-11-17T00:12:02.362Z,10.23
2022-11-17T00:13:02.353Z,10.21
2022-11-17T00:14:02.369Z,10.20
2022-11-17T00:15:02.382Z,10.19
2022-11-17T00:16:02.363Z,10.18
2022-11-17T00:17:02.349Z,10.17
2022-11-17T00:18:02.366Z,10.14
2022-11-17T00:19:02.368Z,10.17
2022-11-17T00:20:02.378Z,10.17
2022-11-17T00:21:02.374Z,10.16
2022-11-17T00:22:02.394Z,10.15
2022-11-17T00:23:02.382Z,10.15
2022-11-17T00:24:02.373Z,10.15
2022-11-17T00:25:02.381Z,10.14
2022-11-17T00:26:02.394Z,10.12
2022-11-17T00:27:02.391Z,10.09
2022-11-17T00:28:02.380Z,10.05
2022-11-17T00:29:02.395Z,10.01
2022-11-17T00:30:02.376Z,9.99
2022-11-17T00:31:02.386Z,9.98
2022-11-17T00:32:02.365Z,9.97
2022-11-17T00:33:02.384Z,9.96
2022-11-17T00:34:02.374Z,9.97
2022-11-17T00:35:02.377Z,9.96
2022-11-17T00:36:02.465Z,9.94
2022-11-17T00:37:02.392Z,9.94
2022-11-17T00:38:02.399Z,9.94
2022-11-17T00:39:02.385Z,9.94
2022-11-17T00:40:02.374Z,9.94
2022-11-17T00:41:02.387Z,9.90
2022-11-17T00:42:02.390Z,9.87
2022-11-17T00:43:02.399Z,9.88
2022-11-17T00:44:02.395Z,9.88
2022-11-17T00:45:02.387Z,9.85
2022-11-17T00:46:02.412Z,9.85
2022-11-17T00:47:02.411Z,9.86
2022-11-17T00:48:02.390Z,9.84
2022-11-17T00:49:02.405Z,9.84
2022-11-17T00:50:02.404Z,9.84
2022-11-17T00:51:02.419Z,9.86
2022-11-17T00:52:02.398Z,9.88
2022-11-17T00:53:02.397Z,9.90
2022-11-17T00:54:02.393Z,9.92
2022-11-17T00:55:02.422Z,9.91
2022-11-17T00:56:02.485Z,9.90
2022-11-17T00:57:02.403Z,9.89
2022-11-17T00:58:02.410Z,9.89
2022-11-17T00:59:02.417Z,9.88
2022-11-17T01:00:02.413Z,9.87
2022-11-17T01:01:02.454Z,9.86
2022-11-17T01:02:02.398Z,9.86
2022-11-17T01:03:02.422Z,9.87
2022-11-17T01:04:02.400Z,9.86
2022-11-17T01:05:02.394Z,9.88
2022-11-17T01:06:02.420Z,9.86
2022-11-17T01:07:02.454Z,9.87
2022-11-17T01:08:02.430Z,9.86
2022-11-17T01:09:02.444Z,9.88
2022-11-17T01:10:02.409Z,9.87
2022-11-17T01:11:02.429Z,9.86
2022-11-17T01:12:02.445Z,9.86
2022-11-17T01:13:02.422Z,9.86
2022-11-17T01:14:02.440Z,9.87
2022-11-17T01:15:02.423Z,9.87
2022-11-17T01:16:02.426Z,9.88
2022-11-17T01:17:02.457Z,9.91
2022-11-17T01:18:02.421Z,9.89
2022-11-17T01:19:02.426Z,9.88
2022-11-17T01:20:02.441Z,9.88
2022-11-17T01:21:02.438Z,9.85
2022-11-17T01:22:02.442Z,9.83
2022-11-17T01:23:02.427Z,9.84
2022-11-17T01:24:02.433Z,9.84
2022-11-17T01:25:02.451Z,9.86
2022-11-17T01:26:02.481Z,9.85
2022-11-17T01:27:02.485Z,9.83
2022-11-17T01:28:24.658Z,9.83
2022-11-17T01:29:24.674Z,9.82
2022-11-17T01:30:24.644Z,9.86
2022-11-17T01:31:24.661Z,9.88
2022-11-17T01:32:24.663Z,9.90
2022-11-17T01:33:24.697Z,9.92
2022-11-17T01:34:24.661Z,9.93
2022-11-17T01:35:24.681Z,9.95
2022-11-17T01:36:24.662Z,9.97
2022-11-17T01:37:24.698Z,9.99
2022-11-17T01:38:24.670Z,9.99
2022-11-17T01:39:24.678Z,9.99
2022-11-17T01:40:24.682Z,9.99
2022-11-17T01:41:24.681Z,9.98
2022-11-17T01:42:24.697Z,10.00
2022-11-17T01:43:24.681Z,10.00
2022-11-17T01:44:24.686Z,10.01
2022-11-17T01:45:24.681Z,10.02
2022-11-17T01:46:24.703Z,10.02
2022-11-17T01:47:24.708Z,10.01
2022-11-17T01:48:24.722Z,10.00
2022-11-17T01:49:24.701Z,9.99
2022-11-17T01:50:24.690Z,9.99
2022-11-17T01:51:24.686Z,9.99
2022-11-17T01:52:24.711Z,10.01
2022-11-17T01:53:24.698Z,10.01
2022-11-17T01:54:24.701Z,10.01
2022-11-17T01:55:24.693Z,9.99
2022-11-17T01:56:24.694Z,9.97
2022-11-17T01:57:24.700Z,9.94
2022-11-17T01:58:24.694Z,9.91
2022-11-17T01:59:24.721Z,9.87
2022-11-17T02:00:24.686Z,9.85
2022-11-17T02:01:24.765Z,9.80
2022-11-17T02:02:24.723Z,9.77
2022-11-17T02:03:24.713Z,9.73
2022-11-17T02:04:24.689Z,9.71
2022-11-17T02:05:24.696Z,9.71
2022-11-17T02:06:24.856Z,9.71
2022-11-17T02:07:24.948Z,9.68
2022-11-17T02:08:24.867Z,9.69
2022-11-17T02:09:24.884Z,9.76
2022-11-17T02:10:24.883Z,9.79
2022-11-17T02:11:24.900Z,9.78
2022-11-17T02:12:24.933Z,9.74
2022-11-17T02:13:24.953Z,9.75
2022-11-17T02:14:24.931Z,9.73
2022-11-17T02:15:24.968Z,9.74
2022-11-17T02:16:24.961Z,9.72
2022-11-17T02:17:25.006Z,9.71
2022-11-17T02:18:25.237Z,9.68
2022-11-17T02:19:24.988Z,9.68
2022-11-17T02:20:25.009Z,9.69
2022-11-17T02:21:25.020Z,9.67
2022-11-17T02:22:25.041Z,9.66
2022-11-17T02:23:25.093Z,9.64
2022-11-17T02:24:25.088Z,9.63
2022-11-17T02:25:27.166Z,9.61
2022-11-17T02:26:25.067Z,9.58
2022-11-17T02:27:25.086Z,9.56
2022-11-17T02:28:25.139Z,9.56
2022-11-17T02:29:25.145Z,9.57
2022-11-17T02:30:25.124Z,9.57
2022-11-17T02:31:25.144Z,9.59
2022-11-17T02:32:25.156Z,9.60
2022-11-17T02:33:25.178Z,9.58
2022-11-17T02:34:25.193Z,9.58
2022-11-17T02:35:25.167Z,9.57
2022-11-17T02:36:25.211Z,9.58
2022-11-17T02:37:25.211Z,9.58
2022-11-17T02:38:25.213Z,9.59
2022-11-17T02:39:25.259Z,9.59
2022-11-17T02:40:25.247Z,9.59
2022-11-17T02:41:25.248Z,9.58
2022-11-17T02:42:25.283Z,9.58
2022-11-17T02:43:25.314Z,9.57
2022-11-17T02:44:25.337Z,9.56
2022-11-17T02:45:25.315Z,9.55
2022-11-17T02:46:25.325Z,9.53
2022-11-17T02:47:25.354Z,9.55
2022-11-17T02:48:25.344Z,9.56
2022-11-17T02:49:25.395Z,9.58
2022-11-17T02:50:28.035Z,9.58
2022-11-17T02:51:25.360Z,9.57
2022-11-17T02:52:25.362Z,9.57
2022-11-17T02:53:25.396Z,9.58
2022-11-17T02:54:25.416Z,9.58
2022-11-17T02:55:25.406Z,9.56
2022-11-17T02:56:25.390Z,9.56
2022-11-17T02:57:25.406Z,9.55
2022-11-17T02:58:25.368Z,9.56
2022-11-17T02:59:25.366Z,9.56
2022-11-17T03:00:25.420Z,9.56
2022-11-17T03:01:25.403Z,9.55
2022-11-17T03:02:25.389Z,9.56
2022-11-17T03:03:25.394Z,9.53
2022-11-17T03:04:25.375Z,9.52
2022-11-17T03:05:25.395Z,9.53
2022-11-17T03:06:25.394Z,9.52
2022-11-17T03:07:25.456Z,9.51
2022-11-17T03:08:28.747Z,9.51
2022-11-17T03:09:25.420Z,9.49
2022-11-17T03:10:25.403Z,9.49
2022-11-17T03:11:25.414Z,9.50
2022-11-17T03:12:25.388Z,9.51
2022-11-17T03:13:25.381Z,9.51
2022-11-17T03:14:25.395Z,9.53
2022-11-17T03:15:25.400Z,9.53
2022-11-17T03:16:25.426Z,9.52
2022-11-17T03:17:25.411Z,9.50
2022-11-17T03:18:25.394Z,9.47
2022-11-17T03:19:25.415Z,9.45
2022-11-17T03:20:25.400Z,9.45
2022-11-17T03:21:25.396Z,9.44
2022-11-17T03:22:25.419Z,9.42
2022-11-17T03:23:25.410Z,9.41
2022-11-17T03:24:25.411Z,9.38
2022-11-17T03:25:25.439Z,9.39
2022-11-17T03:26:25.423Z,9.42
2022-11-17T03:27:25.426Z,9.41
2022-11-17T03:28:25.425Z,9.40
2022-11-17T03:29:25.399Z,9.37
2022-11-17T03:30:25.409Z,9.35
2022-11-17T03:31:25.397Z,9.32
2022-11-17T03:32:25.421Z,9.29
2022-11-17T03:33:25.436Z,9.29
2022-11-17T03:34:25.441Z,9.30
2022-11-17T03:35:25.416Z,9.31
2022-11-17T03:36:25.430Z,9.28
2022-11-17T03:37:25.426Z,9.26
2022-11-17T03:38:25.432Z,9.24
2022-11-17T03:39:25.431Z,9.22
2022-11-17T03:40:25.415Z,9.21
2022-11-17T03:41:25.455Z,9.22
2022-11-17T03:42:25.414Z,9.23
2022-11-17T03:43:25.435Z,9.25
2022-11-17T03:44:25.414Z,9.26
2022-11-17T03:45:25.423Z,9.27
2022-11-17T03:46:25.429Z,9.29
2022-11-17T03:47:25.451Z,9.30
2022-11-17T03:48:25.437Z,9.33
2022-11-17T03:49:25.456Z,9.38
2022-11-17T03:50:25.420Z,9.43
2022-11-17T03:51:25.437Z,9.45
2022-11-17T03:52:25.434Z,9.44
2022-11-17T03:53:25.459Z,9.42
2022-11-17T03:54:25.457Z,9.43
2022-11-17T03:55:25.461Z,9.42
2022-11-17T03:56:25.471Z,9.43
2022-11-17T03:57:25.499Z,9.43
2022-11-17T03:58:25.536Z,9.43
2022-11-17T03:59:25.545Z,9.41
2022-11-17T04:00:25.505Z,9.41
2022-11-17T04:01:25.628Z,9.41
2022-11-17T04:02:25.549Z,9.41
2022-11-17T04:03:25.574Z,9.42
2022-11-17T04:04:25.576Z,9.43
2022-11-17T04:05:25.606Z,9.46
2022-11-17T04:06:25.632Z,9.48
2022-11-17T04:07:25.696Z,9.52
2022-11-17T04:08:25.644Z,9.54
2022-11-17T04:09:25.639Z,9.57
2022-11-17T04:10:25.699Z,9.60
2022-11-17T04:11:25.662Z,9.59
2022-11-17T04:12:25.661Z,9.59
2022-11-17T04:13:25.692Z,9.59
2022-11-17T04:14:25.690Z,9.57
2022-11-17T04:15:25.707Z,9.56
2022-11-17T04:16:25.715Z,9.57
2022-11-17T04:17:25.727Z,9.59
2022-11-17T04:18:25.744Z,9.57
2022-11-17T04:19:25.749Z,9.56
2022-11-17T04:20:25.780Z,9.55
2022-11-17T04:21:25.786Z,9.55
2022-11-17T04:22:25.795Z,9.55
2022-11-17T04:23:25.831Z,9.53
2022-11-17T04:24:25.824Z,9.49
2022-11-17T04:25:25.850Z,9.48
2022-11-17T04:26:25.835Z,9.45
2022-11-17T04:27:25.866Z,9.44
2022-11-17T04:28:25.888Z,9.41
2022-11-17T04:29:25.871Z,9.43
2022-11-17T04:30:25.892Z,9.41
2022-11-17T04:31:25.892Z,9.38
2022-11-17T04:32:25.915Z,9.35
2022-11-17T04:33:25.939Z,9.36
2022-11-17T04:34:25.944Z,9.34
2022-11-17T04:35:25.958Z,9.35
2022-11-17T04:36:25.974Z,9.35
2022-11-17T04:37:26.002Z,9.37
2022-11-17T04:38:25.991Z,9.40
2022-11-17T04:39:25.996Z,9.42
2022-11-17T04:40:25.995Z,9.40
2022-11-17T04:41:26.013Z,9.42
2022-11-17T04:42:26.026Z,9.43
2022-11-17T04:43:26.038Z,9.44
2022-11-17T04:44:26.056Z,9.44
2022-11-17T04:45:26.071Z,9.44
2022-11-17T04:46:26.093Z,9.44
2022-11-17T04:47:26.125Z,9.44
2022-11-17T04:48:26.103Z,9.44
2022-11-17T04:49:26.130Z,9.43
2022-11-17T04:50:26.119Z,9.42
2022-11-17T04:51:26.131Z,9.42
2022-11-17T04:52:29.746Z,9.42
2022-11-17T04:53:26.167Z,9.43
2022-11-17T04:54:26.159Z,9.45
2022-11-17T04:55:26.168Z,9.47
2022-11-17T04:56:26.168Z,9.49
2022-11-17T04:57:26.162Z,9.51
2022-11-17T04:58:26.161Z,9.54
2022-11-17T04:59:26.177Z,9.54
2022-11-17T05:00:26.180Z,9.54
2022-11-17T05:01:26.136Z,9.55
2022-11-17T05:02:26.175Z,9.58
2022-11-17T05:03:26.146Z,9.59
2022-11-17T05:04:26.183Z,9.60
2022-11-17T05:05:26.153Z,9.61
2022-11-17T05:06:26.163Z,9.61
2022-11-17T05:07:26.185Z,9.61
2022-11-17T05:08:26.196Z,9.61
2022-11-17T05:09:26.181Z,9.62
2022-11-17T05:10:26.194Z,9.60
2022-11-17T05:11:26.224Z,9.60
2022-11-17T05:12:26.180Z,9.58
2022-11-17T05:13:26.205Z,9.60
2022-11-17T05:14:26.208Z,9.62
2022-11-17T05:15:26.168Z,9.63
2022-11-17T05:16:26.198Z,9.64
2022-11-17T05:17:26.203Z,9.62
2022-11-17T05:18:26.169Z,9.62
2022-11-17T05:19:26.202Z,9.63
2022-11-17T05:20:26.208Z,9.65
2022-11-17T05:21:26.183Z,9.67
2022-11-17T05:22:26.199Z,9.68
2022-11-17T05:23:26.183Z,9.68
2022-11-17T05:24:26.206Z,9.70
2022-11-17T05:25:26.216Z,9.69
2022-11-17T05:26:26.196Z,9.69
2022-11-17T05:27:26.217Z,9.70
2022-11-17T05:28:26.198Z,9.69
2022-11-17T05:29:26.214Z,9.68
2022-11-17T05:30:26.203Z,9.67
2022-11-17T05:31:26.240Z,9.68
2022-11-17T05:32:26.203Z,9.68
2022-11-17T05:33:26.193Z,9.65
2022-11-17T05:34:26.224Z,9.65
2022-11-17T05:35:26.224Z,9.64
2022-11-17T05:36:26.218Z,9.63
2022-11-17T05:37:26.197Z,9.63
2022-11-17T05:38:26.227Z,9.60
2022-11-17T05:39:26.251Z,9.59
2022-11-17T05:40:26.231Z,9.57
2022-11-17T05:41:26.202Z,9.54
2022-11-17T05:42:26.238Z,9.51
2022-11-17T05:43:26.228Z,9.47
2022-11-17T05:44:26.219Z,9.44
2022-11-17T05:45:26.211Z,9.39
2022-11-17T05:46:26.197Z,9.37
2022-11-17T05:47:26.221Z,9.36
2022-11-17T05:48:26.257Z,9.31
2022-11-17T05:49:26.224Z,9.29
2022-11-17T05:50:26.211Z,9.27
2022-11-17T05:51:26.239Z,9.23
2022-11-17T05:52:26.211Z,9.21
2022-11-17T05:53:26.230Z,9.19
2022-11-17T05:54:26.216Z,9.18
2022-11-17T05:55:26.241Z,9.17
2022-11-17T05:56:26.224Z,9.17
2022-11-17T05:57:26.239Z,9.16
2022-11-17T05:58:26.228Z,9.15
2022-11-17T05:59:27.982Z,9.12
2022-11-17T06:00:26.254Z,9.14
2022-11-17T06:01:26.216Z,9.12
2022-11-17T06:02:26.237Z,9.12
2022-11-17T06:03:26.241Z,9.12
2022-11-17T06:04:26.295Z,9.12
2022-11-17T06:05:26.212Z,9.11
2022-11-17T06:06:26.234Z,9.11
2022-11-17T06:07:26.277Z,9.11
2022-11-17T06:08:26.260Z,9.11
2022-11-17T06:09:26.254Z,9.13
2022-11-17T06:10:26.259Z,9.13
2022-11-17T06:11:26.244Z,9.14
2022-11-17T06:12:26.264Z,9.12
2022-11-17T06:13:26.416Z,9.12
2022-11-17T06:14:26.259Z,9.11
2022-11-17T06:15:26.271Z,9.11
2022-11-17T06:16:26.247Z,9.12
2022-11-17T06:17:26.238Z,9.14
2022-11-17T06:18:26.267Z,9.12
2022-11-17T06:19:26.248Z,9.12
2022-11-17T06:20:26.255Z,9.12
2022-11-17T06:21:26.253Z,9.14
2022-11-17T06:22:26.246Z,9.14
2022-11-17T06:23:26.273Z,9.15
2022-11-17T06:24:26.258Z,9.15
2022-11-17T06:25:26.285Z,9.15
2022-11-17T06:26:26.269Z,9.14
2022-11-17T06:27:26.259Z,9.16
2022-11-17T06:28:26.281Z,9.16
2022-11-17T06:29:26.264Z,9.16
2022-11-17T06:30:26.247Z,9.15
2022-11-17T06:31:26.253Z,9.14
2022-11-17T06:32:26.276Z,9.13
2022-11-17T06:33:26.280Z,9.11
2022-11-17T06:34:26.289Z,9.11
2022-11-17T06:35:26.288Z,9.11
2022-11-17T06:36:26.302Z,9.10
2022-11-17T06:37:26.312Z,9.09
2022-11-17T06:38:26.313Z,9.08
2022-11-17T06:39:26.313Z,9.06
2022-11-17T06:40:26.344Z,9.04
2022-11-17T06:41:26.339Z,9.02
2022-11-17T06:42:26.365Z,9.01
2022-11-17T06:43:26.368Z,8.98
2022-11-17T06:44:26.366Z,8.98
2022-11-17T06:45:26.388Z,8.95
2022-11-17T06:46:26.420Z,8.95
2022-11-17T06:47:26.428Z,8.96
2022-11-17T06:48:26.417Z,8.93
2022-11-17T06:49:26.470Z,8.93
2022-11-17T06:50:26.486Z,8.93
2022-11-17T06:51:26.451Z,8.95
2022-11-17T06:52:26.501Z,8.94
2022-11-17T06:53:26.540Z,8.94
2022-11-17T06:54:26.507Z,8.96
2022-11-17T06:55:26.538Z,8.96
2022-11-17T06:56:26.548Z,8.96
2022-11-17T06:57:26.547Z,8.97
2022-11-17T06:58:26.533Z,8.96
2022-11-17T06:59:26.585Z,8.97
2022-11-17T07:00:26.708Z,8.99
2022-11-17T07:01:26.633Z,8.99
2022-11-17T07:02:26.612Z,9.01
2022-11-17T07:03:26.610Z,9.01
2022-11-17T07:04:26.639Z,9.03
2022-11-17T07:05:26.630Z,9.03
2022-11-17T07:06:26.703Z,9.04
2022-11-17T07:07:26.760Z,9.04
2022-11-17T07:08:26.659Z,9.04
2022-11-17T07:09:26.694Z,9.05
2022-11-17T07:10:26.695Z,9.05
2022-11-17T07:11:26.702Z,9.06
2022-11-17T07:12:26.709Z,9.07
2022-11-17T07:13:26.742Z,9.05
2022-11-17T07:14:26.752Z,9.07
2022-11-17T07:15:26.737Z,9.09
2022-11-17T07:16:26.772Z,9.10
2022-11-17T07:17:26.785Z,9.10
2022-11-17T07:18:26.774Z,9.10
2022-11-17T07:19:26.787Z,9.11
2022-11-17T07:20:26.789Z,9.09
2022-11-17T07:21:26.811Z,9.07
2022-11-17T07:22:26.842Z,9.06
2022-11-17T07:23:26.855Z,9.05
2022-11-17T07:24:26.824Z,9.06
2022-11-17T07:25:26.868Z,9.03
2022-11-17T07:26:27.157Z,9.03
2022-11-17T07:27:26.887Z,9.02
2022-11-17T07:28:48.245Z,9.02
2022-11-17T07:29:48.190Z,9.03
2022-11-17T07:30:48.254Z,9.03
2022-11-17T07:31:48.206Z,9.03
2022-11-17T07:32:53.372Z,9.03
2022-11-17T07:33:48.238Z,9.03
2022-11-17T07:34:48.295Z,9.03
2022-11-17T07:35:48.242Z,9.03
2022-11-17T07:36:48.213Z,9.03
2022-11-17T07:37:48.240Z,9.02
2022-11-17T07:38:48.238Z,9.03
2022-11-17T07:39:48.257Z,9.01
2022-11-17T07:40:48.224Z,9.01
2022-11-17T07:41:48.250Z,9.02
2022-11-17T07:42:48.245Z,9.02
2022-11-17T07:43:48.227Z,9.02
2022-11-17T07:44:48.245Z,9.03
2022-11-17T07:45:48.228Z,9.04
2022-11-17T07:46:48.296Z,9.04
2022-11-17T07:47:48.289Z,9.05
2022-11-17T07:48:48.300Z,9.05
2022-11-17T07:49:48.306Z,9.06
2022-11-17T07:50:48.242Z,9.05
2022-11-17T07:51:48.276Z,9.06
2022-11-17T07:52:48.416Z,9.05
2022-11-17T07:53:48.452Z,9.04
2022-11-17T07:54:48.440Z,9.07
2022-11-17T07:55:48.461Z,9.07
2022-11-17T07:56:48.462Z,9.07
2022-11-17T07:57:48.473Z,9.07
2022-11-17T07:58:48.432Z,9.08
2022-11-17T07:59:48.489Z,9.09
2022-11-17T08:00:48.581Z,9.11
2022-11-17T08:01:48.542Z,9.11
2022-11-17T08:02:48.515Z,9.10
2022-11-17T08:03:48.620Z,9.10
2022-11-17T08:04:48.564Z,9.11
2022-11-17T08:05:48.558Z,9.14
2022-11-17T08:06:48.602Z,9.12
2022-11-17T08:07:48.579Z,9.14
2022-11-17T08:08:48.565Z,9.15
2022-11-17T08:09:48.580Z,9.16
2022-11-17T08:10:48.636Z,9.17
2022-11-17T08:11:48.648Z,9.17
2022-11-17T08:12:48.707Z,9.17
2022-11-17T08:13:48.674Z,9.15
2022-11-17T08:14:48.674Z,9.18
2022-11-17T08:15:48.675Z,9.19
2022-11-17T08:16:48.676Z,9.20
2022-11-17T08:17:48.722Z,9.21
2022-11-17T08:18:52.200Z,9.21
2022-11-17T08:19:48.725Z,9.20
2022-11-17T08:20:48.715Z,9.20
2022-11-17T08:21:48.736Z,9.20
2022-11-17T08:22:48.741Z,9.21
2022-11-17T08:23:51.752Z,9.22
2022-11-17T08:24:48.724Z,9.23
2022-11-17T08:25:48.745Z,9.23
2022-11-17T08:26:48.738Z,9.24
2022-11-17T08:27:48.720Z,9.25
2022-11-17T08:28:52.172Z,9.24
2022-11-17T08:29:48.723Z,9.25
2022-11-17T08:30:48.725Z,9.25
2022-11-17T08:31:48.709Z,9.26
2022-11-17T08:32:48.778Z,9.27
2022-11-17T08:33:48.751Z,9.27
2022-11-17T08:34:48.765Z,9.28
2022-11-17T08:35:48.745Z,9.28
2022-11-17T08:36:48.752Z,9.26
2022-11-17T08:37:48.737Z,9.24
2022-11-17T08:38:48.742Z,9.24
2022-11-17T08:39:48.750Z,9.23
2022-11-17T08:40:48.729Z,9.21
2022-11-17T08:41:48.741Z,9.23
2022-11-17T08:42:48.742Z,9.23
2022-11-17T08:43:48.757Z,9.23
2022-11-17T08:44:48.746Z,9.24
2022-11-17T08:45:48.781Z,9.24
2022-11-17T08:46:48.750Z,9.24
2022-11-17T08:47:48.780Z,9.25
2022-11-17T08:48:52.240Z,9.25
2022-11-17T08:49:48.806Z,9.26
2022-11-17T08:50:48.742Z,9.27
2022-11-17T08:51:48.746Z,9.28
2022-11-17T08:52:48.758Z,9.29
2022-11-17T08:53:48.760Z,9.29
2022-11-17T08:54:48.752Z,9.30
2022-11-17T08:55:48.787Z,9.33
2022-11-17T08:56:48.827Z,9.34
2022-11-17T08:57:48.766Z,9.34
2022-11-17T08:58:48.752Z,9.36
2022-11-17T08:59:48.811Z,9.36
2022-11-17T09:00:48.850Z,9.37
2022-11-17T09:01:48.826Z,9.38
2022-11-17T09:02:48.801Z,9.39
2022-11-17T09:03:48.816Z,9.40
2022-11-17T09:04:48.782Z,9.40
2022-11-17T09:05:48.809Z,9.41
2022-11-17T09:06:48.792Z,9.43
2022-11-17T09:07:48.932Z,9.42
2022-11-17T09:08:48.864Z,9.43
2022-11-17T09:09:48.763Z,9.44
2022-11-17T09:10:48.778Z,9.45
2022-11-17T09:11:48.816Z,9.46
2022-11-17T09:12:48.792Z,9.46
2022-11-17T09:13:48.788Z,9.46
2022-11-17T09:14:48.795Z,9.48
2022-11-17T09:15:48.802Z,9.49
2022-11-17T09:16:48.793Z,9.50
2022-11-17T09:17:48.777Z,9.50
2022-11-17T09:18:48.763Z,9.52
2022-11-17T09:19:48.822Z,9.52
2022-11-17T09:20:48.824Z,9.52
2022-11-17T09:21:48.857Z,9.52
2022-11-17T09:22:48.895Z,9.53
2022-11-17T09:23:48.862Z,9.55
2022-11-17T09:24:48.867Z,9.56
2022-11-17T09:25:48.887Z,9.58
2022-11-17T09:26:48.913Z,9.59
2022-11-17T09:27:48.937Z,9.59
2022-11-17T09:28:48.950Z,9.61
2022-11-17T09:29:48.949Z,9.62
2022-11-17T09:30:48.928Z,9.64
2022-11-17T09:31:48.981Z,9.64
2022-11-17T09:32:48.998Z,9.66
2022-11-17T09:33:49.025Z,9.67
2022-11-17T09:34:49.103Z,9.67
2022-11-17T09:35:49.065Z,9.68
2022-11-17T09:36:49.038Z,9.66
2022-11-17T09:37:49.046Z,9.63
2022-11-17T09:38:49.078Z,9.63
2022-11-17T09:39:49.094Z,9.66
2022-11-17T09:40:49.065Z,9.65
2022-11-17T09:41:49.096Z,9.66
2022-11-17T09:42:49.109Z,9.65
2022-11-17T09:43:49.102Z,9.64
2022-11-17T09:44:49.111Z,9.63
2022-11-17T09:45:49.141Z,9.61
2022-11-17T09:46:49.133Z,9.59
2022-11-17T09:47:49.173Z,9.56
2022-11-17T09:48:49.178Z,9.55
2022-11-17T09:49:52.288Z,9.52
2022-11-17T09:50:49.168Z,9.49
2022-11-17T09:51:49.148Z,9.47
2022-11-17T09:52:49.179Z,9.46
2022-11-17T09:53:49.213Z,9.47
2022-11-17T09:54:49.170Z,9.47
2022-11-17T09:55:49.168Z,9.46
2022-11-17T09:56:49.187Z,9.44
2022-11-17T09:57:49.146Z,9.43
2022-11-17T09:58:49.161Z,9.41
2022-11-17T09:59:49.190Z,9.38
2022-11-17T10:00:49.205Z,9.36
2022-11-17T10:01:49.230Z,9.35
2022-11-17T10:02:49.190Z,9.34
2022-11-17T10:03:49.410Z,9.33
2022-11-17T10:04:49.217Z,9.33
2022-11-17T10:05:49.161Z,9.32
2022-11-17T10:06:49.190Z,9.32
2022-11-17T10:07:49.192Z,9.34
2022-11-17T10:08:49.171Z,9.34
2022-11-17T10:09:49.184Z,9.37
2022-11-17T10:10:49.196Z,9.36
2022-11-17T10:11:49.204Z,9.36
2022-11-17T10:12:49.182Z,9.34
2022-11-17T10:13:49.165Z,9.34
2022-11-17T10:14:49.192Z,9.34
2022-11-17T10:15:49.194Z,9.32
2022-11-17T10:16:49.224Z,9.32
2022-11-17T10:17:49.187Z,9.31
2022-11-17T10:18:49.198Z,9.30
2022-11-17T10:19:49.165Z,9.31
2022-11-17T10:20:49.209Z,9.34
2022-11-17T10:21:49.180Z,9.34
2022-11-17T10:22:49.196Z,9.35
2022-11-17T10:23:49.372Z,9.38
2022-11-17T10:24:49.212Z,9.42
2022-11-17T10:25:49.209Z,9.46
2022-11-17T10:26:49.211Z,9.52
2022-11-17T10:27:49.188Z,9.59
2022-11-17T10:28:49.216Z,9.64
2022-11-17T10:29:49.207Z,9.70
2022-11-17T10:30:49.186Z,9.78
2022-11-17T10:31:49.172Z,9.85
2022-11-17T10:32:49.244Z,9.88
2022-11-17T10:33:49.227Z,9.92
2022-11-17T10:34:49.197Z,9.96
2022-11-17T10:35:49.234Z,9.99
2022-11-17T10:36:49.226Z,10.01
2022-11-17T10:37:49.250Z,10.04
2022-11-17T10:38:49.225Z,10.05
2022-11-17T10:39:49.219Z,10.03
2022-11-17T10:40:49.242Z,10.04
2022-11-17T10:41:49.229Z,10.04
2022-11-17T10:42:49.196Z,10.05
2022-11-17T10:43:49.218Z,10.04
2022-11-17T10:44:49.238Z,10.03
2022-11-17T10:45:49.211Z,10.02
2022-11-17T10:46:49.208Z,10.01
2022-11-17T10:47:49.213Z,10.02
2022-11-17T10:48:49.229Z,10.01
2022-11-17T10:49:49.204Z,10.00
2022-11-17T10:50:49.240Z,9.99
2022-11-17T10:51:49.261Z,10.00
2022-11-17T10:52:49.264Z,10.02
2022-11-17T10:53:49.529Z,10.02
2022-11-17T10:54:49.308Z,10.01
2022-11-17T10:55:49.278Z,10.01
2022-11-17T10:56:49.288Z,10.00
2022-11-17T10:57:49.337Z,10.00
2022-11-17T10:58:49.307Z,10.01
2022-11-17T10:59:53.593Z,9.99
2022-11-17T11:00:49.359Z,10.00
2022-11-17T11:01:49.391Z,10.00
2022-11-17T11:02:49.359Z,10.03
2022-11-17T11:03:49.337Z,10.03
2022-11-17T11:04:49.346Z,10.03
2022-11-17T11:05:49.368Z,10.04
2022-11-17T11:06:49.344Z,10.04
2022-11-17T11:07:49.360Z,10.05
2022-11-17T11:08:49.376Z,10.06
2022-11-17T11:09:49.344Z,10.06
2022-11-17T11:10:49.392Z,10.07
2022-11-17T11:11:49.365Z,10.10
2022-11-17T11:12:49.371Z,10.11
2022-11-17T11:13:49.351Z,10.12
2022-11-17T11:14:49.365Z,10.14
2022-11-17T11:15:49.384Z,10.16
2022-11-17T11:16:49.351Z,10.18
2022-11-17T11:17:49.374Z,10.20
2022-11-17T11:18:49.363Z,10.22
2022-11-17T11:19:49.360Z,10.22
2022-11-17T11:20:49.380Z,10.23
2022-11-17T11:21:49.507Z,10.23
2022-11-17T11:22:49.385Z,10.24
2022-11-17T11:23:49.397Z,10.24
2022-11-17T11:24:49.355Z,10.25
2022-11-17T11:25:49.410Z,10.25
2022-11-17T11:26:49.430Z,10.27
2022-11-17T11:27:49.363Z,10.28
2022-11-17T11:28:54.522Z,10.29
2022-11-17T11:29:49.377Z,10.30
2022-11-17T11:30:49.356Z,10.29
2022-11-17T11:31:49.369Z,10.28
2022-11-17T11:32:49.348Z,10.30
2022-11-17T11:33:49.340Z,10.32
2022-11-17T11:34:49.407Z,10.32
2022-11-17T11:35:49.389Z,10.32
2022-11-17T11:36:49.407Z,10.33
2022-11-17T11:37:49.389Z,10.34
2022-11-17T11:38:49.366Z,10.35
2022-11-17T11:39:49.373Z,10.33
2022-11-17T11:40:49.415Z,10.34
2022-11-17T11:41:49.408Z,10.34
2022-11-17T11:42:49.387Z,10.34
2022-11-17T11:43:49.379Z,10.35
2022-11-17T11:44:49.380Z,10.37
2022-11-17T11:45:49.430Z,10.36
2022-11-17T11:46:49.417Z,10.36
2022-11-17T11:47:49.404Z,10.37
2022-11-17T11:48:49.394Z,10.38
2022-11-17T11:49:49.407Z,10.37
2022-11-17T11:50:49.412Z,10.37
2022-11-17T11:51:49.375Z,10.38
2022-11-17T11:52:49.419Z,10.37
2022-11-17T11:53:49.408Z,10.38
2022-11-17T11:54:50.781Z,10.41
2022-11-17T11:55:49.375Z,10.44
2022-11-17T11:56:49.404Z,10.45
2022-11-17T11:57:49.390Z,10.47
2022-11-17T11:58:49.391Z,10.51
2022-11-17T11:59:49.405Z,10.53
2022-11-17T12:00:49.408Z,10.60
2022-11-17T12:01:49.527Z,10.65
2022-11-17T12:02:49.444Z,10.69
2022-11-17T12:03:49.392Z,10.74
2022-11-17T12:04:49.390Z,10.77
2022-11-17T12:05:49.420Z,10.80
2022-11-17T12:06:49.424Z,10.83
2022-11-17T12:07:49.407Z,10.84
2022-11-17T12:08:49.435Z,10.88
2022-11-17T12:09:49.404Z,10.89
2022-11-17T12:10:49.437Z,10.90
2022-11-17T12:11:49.433Z,10.91
2022-11-17T12:12:49.396Z,10.91
2022-11-17T12:13:54.047Z,10.91
2022-11-17T12:14:49.448Z,10.92
2022-11-17T12:15:49.414Z,10.92
2022-11-17T12:16:49.437Z,10.92
2022-11-17T12:17:49.455Z,10.92
2022-11-17T12:18:49.382Z,10.93
2022-11-17T12:19:49.434Z,10.93
2022-11-17T12:20:49.411Z,10.94
2022-11-17T12:21:49.439Z,10.94
2022-11-17T12:22:49.392Z,10.94
2022-11-17T12:23:49.433Z,10.95
2022-11-17T12:24:49.435Z,10.95
2022-11-17T12:25:53.920Z,10.95
2022-11-17T12:26:49.452Z,10.95
2022-11-17T12:27:49.444Z,10.95
2022-11-17T12:28:49.465Z,10.96
2022-11-17T12:29:49.444Z,10.95
2022-11-17T12:30:49.436Z,10.95
2022-11-17T12:31:49.419Z,10.96
2022-11-17T12:32:49.439Z,10.95
2022-11-17T12:33:49.458Z,10.94
2022-11-17T12:34:49.434Z,10.95
2022-11-17T12:35:49.450Z,10.94
2022-11-17T12:36:49.429Z,10.94
2022-11-17T12:37:49.449Z,10.95
2022-11-17T12:38:49.455Z,10.94
2022-11-17T12:39:49.472Z,10.94
2022-11-17T12:40:49.520Z,10.95
2022-11-17T12:41:49.701Z,10.95
2022-11-17T12:42:49.453Z,10.96
2022-11-17T12:43:49.460Z,10.96
2022-11-17T12:44:49.471Z,10.97
2022-11-17T12:45:49.460Z,10.99
2022-11-17T12:46:49.470Z,10.99
2022-11-17T12:48:11.201Z,11.00
2022-11-17T12:48:49.490Z,11.02
2022-11-17T12:49:49.486Z,11.02
2022-11-17T12:50:49.445Z,11.03
2022-11-17T12:51:49.454Z,11.04
2022-11-17T12:52:49.444Z,11.05
2022-11-17T12:53:49.481Z,11.05
2022-11-17T12:54:49.452Z,11.05
2022-11-17T12:55:49.474Z,11.04
2022-11-17T12:56:49.461Z,11.06
2022-11-17T12:57:49.513Z,11.06
2022-11-17T12:58:49.455Z,11.06
2022-11-17T12:59:49.487Z,11.07
2022-11-17T13:00:49.453Z,11.10
2022-11-17T13:01:49.544Z,11.11
2022-11-17T13:02:49.462Z,11.14
2022-11-17T13:03:49.463Z,11.17
2022-11-17T13:04:49.952Z,11.22
2022-11-17T13:06:01.615Z,11.30
2022-11-17T13:06:49.494Z,11.36
2022-11-17T13:07:49.488Z,11.47
2022-11-17T13:08:49.456Z,11.60
2022-11-17T13:09:49.473Z,11.70
2022-11-17T13:10:49.460Z,11.87
2022-11-17T13:11:49.477Z,12.05